Time;durP1;ratioP1;P1;durP2;ratioP2;P2;SDS_P1;SDS_P2;PMS_P1;PMS_P2;Temp;Humidity;BMP_temperature;BMP_pressure;BME280_temperature;BME280_humidity;BME280_pressure;Samples;Min_cycle;Max_cycle;Signal;HPM_P1;HPM_P2
2023/09/15 00:00:36;;;;;;;8.37;7.43;;;13.20;95.80;;;12.75;95.65;98324.25;5063969;28;20456;-78
2023/09/15 00:03:04;;;;;;;10.13;8.60;;;13.20;95.90;;;12.63;96.04;98326.84;5044752;28;20453;-78
2023/09/15 00:05:33;;;;;;;9.43;8.40;;;13.20;95.70;;;12.77;95.06;98316.72;5048681;28;20848;-79
2023/09/15 00:08:04;;;;;;;10.93;8.43;;;13.10;95.70;;;12.36;94.82;98234.94;5043400;28;20452;-78
2023/09/15 00:10:31;;;;;;;10.70;8.30;;;13.10;95.70;;;12.78;94.67;98318.38;5045833;28;20479;-80
2023/09/15 00:12:59;;;;;;;9.90;8.30;;;13.10;95.80;;;12.75;95.05;98314.22;5045126;28;20869;-78
2023/09/15 00:15:27;;;;;;;10.20;7.70;;;13.10;95.50;;;12.81;94.48;98311.66;5048977;28;20456;-79
2023/09/15 00:17:56;;;;;;;9.70;8.70;;;13.10;95.80;;;12.74;94.33;98307.16;5041656;28;20442;-79
2023/09/15 00:20:25;;;;;;;9.90;7.70;;;13.10;95.40;;;12.47;94.01;98266.72;5049416;28;20471;-78
2023/09/15 00:22:56;;;;;;;8.83;7.77;;;13.20;95.10;;;12.74;93.92;98307.16;5047135;28;20522;-78
2023/09/15 00:25:26;;;;;;;9.20;7.93;;;13.20;94.90;;;12.72;93.99;98309.25;5042256;28;20442;-79
2023/09/15 00:27:56;;;;;;;9.23;8.23;;;13.10;94.90;;;12.74;93.75;98309.03;5042832;28;20452;-77
2023/09/15 00:30:26;;;;;;;9.57;8.27;;;13.20;94.70;;;12.70;94.23;98311.38;5048011;28;20517;-77
2023/09/15 00:32:56;;;;;;;9.70;8.20;;;13.10;94.90;;;12.63;94.17;98309.75;5025187;28;20465;-77
2023/09/15 00:35:28;;;;;;;8.77;7.87;;;13.10;94.90;;;12.57;94.66;98312.28;5046355;28;20575;-79
2023/09/15 00:37:56;;;;;;;9.63;7.80;;;13.00;95.00;;;12.59;94.08;98307.50;5040991;28;20457;-77
2023/09/15 00:40:24;;;;;;;9.50;7.33;;;13.10;94.80;;;12.64;94.02;98306.81;5044315;28;20453;-79
2023/09/15 00:42:53;;;;;;;8.27;7.47;;;13.10;94.60;;;12.56;94.40;98307.91;5040151;28;20565;-78
2023/09/15 00:45:23;;;;;;;8.30;7.50;;;13.00;94.70;;;12.61;93.86;98307.25;5044546;28;20452;-79
2023/09/15 00:47:52;;;;;;;9.90;8.83;;;13.00;94.60;;;12.56;94.30;98312.53;5040269;28;20460;-79
2023/09/15 00:50:24;;;;;;;11.03;7.37;;;13.00;94.80;;;12.49;94.04;98304.44;5044340;28;20511;-80
2023/09/15 00:52:55;;;;;;;8.97;7.97;;;13.00;94.70;;;12.60;94.01;98311.03;5035990;28;20460;-77
2023/09/15 00:55:26;;;;;;;9.10;8.17;;;13.00;94.90;;;12.32;94.61;98293.31;5043648;28;20464;-78
2023/09/15 00:57:55;;;;;;;8.90;7.63;;;12.90;94.90;;;12.42;94.18;98309.91;5038129;28;20859;-78
2023/09/15 01:00:23;;;;;;;9.30;7.57;;;12.90;95.30;;;12.44;94.17;98312.41;5035642;28;20460;-78
2023/09/15 01:02:51;;;;;;;8.37;7.53;;;12.90;95.00;;;12.27;94.57;98285.03;5045423;28;20514;-78
2023/09/15 01:05:23;;;;;;;8.53;7.63;;;12.90;94.90;;;12.50;94.30;98316.09;5043853;28;20494;-78
2023/09/15 01:07:53;;;;;;;9.83;7.90;;;12.90;94.90;;;12.33;94.32;98303.94;5036340;28;20468;-77
2023/09/15 01:10:20;;;;;;;8.20;7.40;;;12.80;94.80;;;12.44;94.11;98315.13;5045783;28;21039;-78
2023/09/15 01:12:50;;;;;;;9.67;8.20;;;12.80;95.10;;;12.35;94.60;98316.44;5040780;28;21136;-78
2023/09/15 01:15:18;;;;;;;8.10;7.40;;;12.70;95.50;;;12.30;94.88;98312.50;5048461;28;20466;-76
2023/09/15 01:17:56;;;;;;;8.00;6.90;;;12.70;95.40;;;12.37;94.64;98307.06;5048471;28;20851;-77
2023/09/15 01:21:19;;;;;;;9.47;7.40;;;12.80;95.40;;;12.35;94.66;98306.41;5044126;28;20465;-76
2023/09/15 01:24:13;;;;;;;8.60;6.67;;;12.80;95.40;;;12.26;95.47;98310.47;4969921;28;20464;-76
2023/09/15 01:27:23;;;;;;;8.47;6.87;;;12.70;95.20;;;12.28;94.92;98298.38;5049738;28;20456;-78
2023/09/15 01:29:55;;;;;;;9.07;7.70;;;12.70;95.60;;;12.08;95.04;98282.25;5007850;28;20461;-76
2023/09/15 01:32:24;;;;;;;8.97;8.07;;;12.70;95.50;;;12.25;95.36;98308.81;5044774;28;20451;-78
2023/09/15 01:34:54;;;;;;;10.10;7.10;;;12.60;95.40;;;12.21;95.41;98307.56;5045369;28;20475;-78
2023/09/15 01:37:23;;;;;;;7.67;6.90;;;12.60;95.60;;;11.59;95.78;98216.91;5046675;28;20456;-79
2023/09/15 01:39:52;;;;;;;8.33;7.37;;;12.60;95.80;;;12.11;95.67;98303.47;5048643;28;20930;-78
2023/09/15 01:42:19;;;;;;;8.80;7.70;;;12.60;95.90;;;12.11;95.95;98292.63;5048406;28;20965;-81
2023/09/15 01:44:47;;;;;;;8.20;7.37;;;12.50;96.40;;;12.13;95.92;98301.38;5062440;28;20583;-78
2023/09/15 01:47:21;;;;;;;10.10;7.07;;;12.50;96.30;;;12.11;96.38;98303.47;5048855;28;20451;-77
2023/09/15 01:49:51;;;;;;;8.13;7.33;;;12.50;96.50;;;12.02;95.94;98288.53;5044497;28;20480;-77
2023/09/15 01:52:19;;;;;;;8.03;7.17;;;12.50;96.30;;;12.02;96.19;98294.78;5046058;28;20459;-77
2023/09/15 01:54:47;;;;;;;7.83;7.03;;;12.40;96.30;;;12.02;96.23;98310.19;5046455;28;20948;-77
2023/09/15 01:57:15;;;;;;;7.63;6.83;;;12.40;96.40;;;12.00;96.69;98314.97;5045922;28;20506;-79
2023/09/15 01:59:42;;;;;;;7.77;6.97;;;12.40;96.30;;;12.00;96.53;98302.25;5045864;28;20470;-78
2023/09/15 02:02:10;;;;;;;8.47;7.57;;;12.40;96.60;;;11.69;96.14;98257.88;5045735;28;20452;-79
2023/09/15 02:04:40;;;;;;;8.33;7.00;;;12.40;96.50;;;11.95;96.79;98312.09;5045195;28;20530;-79
2023/09/15 02:07:08;;;;;;;7.30;6.53;;;12.30;96.70;;;11.81;96.43;98282.38;5047811;28;20479;-79
2023/09/15 02:09:36;;;;;;;7.83;7.03;;;12.30;96.60;;;12.01;96.38;98312.06;5042324;28;20476;-79
2023/09/15 02:12:03;;;;;;;8.17;7.30;;;12.30;96.70;;;12.03;95.99;98311.84;5048549;28;20501;-79
2023/09/15 02:14:30;;;;;;;8.00;7.00;;;12.30;96.70;;;12.09;95.88;98308.28;5045454;28;20533;-78
2023/09/15 02:16:58;;;;;;;8.33;7.27;;;12.40;96.60;;;12.02;95.72;98293.94;5048663;28;20938;-78
2023/09/15 02:19:25;;;;;;;7.53;6.83;;;12.30;96.40;;;12.04;95.85;98308.09;5046261;28;20455;-77
2023/09/15 02:21:54;;;;;;;8.53;6.60;;;12.30;96.70;;;11.94;96.10;98305.00;5045833;28;20464;-78
2023/09/15 02:24:22;;;;;;;7.60;6.80;;;12.20;97.00;;;11.95;96.33;98303.97;5037217;28;20453;-79
2023/09/15 02:26:49;;;;;;;8.20;7.27;;;12.20;97.20;;;11.86;96.85;98309.63;5046529;28;20461;-78
2023/09/15 02:29:17;;;;;;;8.73;7.13;;;12.20;97.40;;;11.84;96.96;98309.00;5047660;28;20947;-77
2023/09/15 02:31:47;;;;;;;8.97;7.57;;;12.20;97.50;;;11.80;96.90;98305.09;5046960;28;20498;-76
2023/09/15 02:34:15;;;;;;;7.93;6.80;;;12.20;97.20;;;11.86;96.89;98306.09;5040426;28;20469;-77
2023/09/15 02:36:43;;;;;;;7.07;6.40;;;12.20;96.90;;;11.76;96.58;98290.31;5043748;28;20456;-78
2023/09/15 02:39:12;;;;;;;7.27;6.57;;;12.20;97.30;;;11.68;96.91;98293.28;5061013;28;20468;-78
2023/09/15 02:41:40;;;;;;;7.63;6.83;;;12.10;97.00;;;11.55;97.41;98289.56;5071076;28;20500;-80
2023/09/15 02:44:09;;;;;;;7.90;6.20;;;12.10;97.30;;;11.82;97.09;98311.09;5065475;28;20459;-80
2023/09/15 02:46:37;;;;;;;8.17;7.07;;;12.20;97.40;;;11.81;96.62;98306.75;5071139;28;20504;-80
2023/09/15 02:49:05;;;;;;;10.10;7.23;;;12.20;96.90;;;11.76;96.78;98298.44;5072547;28;20463;-78
2023/09/15 02:51:32;;;;;;;8.43;7.53;;;12.20;96.70;;;11.66;97.52;98292.66;5069121;28;20456;-80
2023/09/15 02:54:00;;;;;;;7.83;6.80;;;12.10;97.50;;;11.73;97.36;98305.13;5073246;28;20471;-81
2023/09/15 02:56:29;;;;;;;7.67;6.50;;;12.10;97.20;;;11.68;97.60;98298.69;5068110;28;20485;-78
2023/09/15 02:58:56;;;;;;;8.90;5.70;;;12.10;97.60;;;11.67;97.91;98299.72;5050578;28;20460;-77
2023/09/15 03:01:24;;;;;;;7.60;6.50;;;12.00;97.70;;;11.72;97.18;98295.34;5048008;28;20532;-78
2023/09/15 03:03:52;;;;;;;7.40;5.97;;;12.00;98.30;;;11.71;97.66;98292.84;5051264;28;20498;-78
2023/09/15 03:06:20;;;;;;;6.77;6.10;;;12.00;97.70;;;11.62;97.16;98287.69;5046619;28;20848;-79
2023/09/15 03:08:48;;;;;;;7.30;6.60;;;12.00;97.60;;;11.00;97.51;98184.53;5047522;28;20456;-77
2023/09/15 03:11:18;;;;;;;7.73;6.97;;;12.00;97.90;;;11.64;97.16;98275.81;5047952;28;20568;-79
2023/09/15 03:13:46;;;;;;;6.97;5.90;;;12.00;97.70;;;11.65;97.89;98294.53;5048072;28;20484;-78
2023/09/15 03:16:16;;;;;;;7.13;6.43;;;12.00;97.50;;;11.66;97.33;98293.47;5042508;28;20464;-77
2023/09/15 03:18:46;;;;;;;6.80;6.10;;;12.00;97.00;;;11.68;97.32;98286.00;5037566;28;20485;-77
2023/09/15 03:21:13;;;;;;;7.57;6.87;;;12.00;97.50;;;11.71;97.17;98282.00;5046728;28;20456;-79
2023/09/15 03:23:42;;;;;;;11.00;6.87;;;12.10;97.20;;;11.69;97.05;98275.97;5048465;28;20451;-79
2023/09/15 03:26:10;;;;;;;7.60;6.87;;;12.10;97.10;;;11.68;97.31;98271.63;5050508;28;20474;-78
2023/09/15 03:28:39;;;;;;;7.27;6.47;;;12.00;97.10;;;11.58;97.96;98283.72;5051186;28;20456;-78
2023/09/15 03:31:08;;;;;;;7.90;7.17;;;12.00;97.10;;;11.64;97.53;98279.34;5045750;28;20565;-78
2023/09/15 03:33:36;;;;;;;7.03;6.33;;;12.00;97.40;;;11.55;97.78;98283.34;5042921;28;20457;-77
2023/09/15 03:36:04;;;;;;;7.07;6.37;;;12.00;97.20;;;11.53;98.40;98275.44;5044559;28;21228;-77
2023/09/15 03:38:31;;;;;;;7.80;5.93;;;12.00;97.50;;;11.52;98.02;98273.78;5045448;28;20464;-78
2023/09/15 03:40:59;;;;;;;8.50;6.40;;;12.00;97.00;;;11.56;97.82;98280.41;5042944;28;20460;-78
2023/09/15 03:43:27;;;;;;;7.80;6.90;;;12.00;97.30;;;11.59;97.76;98274.56;5044717;28;20983;-77
2023/09/15 03:45:54;;;;;;;7.93;6.20;;;12.00;97.50;;;11.53;97.81;98275.44;5043473;28;20537;-78
2023/09/15 03:48:23;;;;;;;10.23;6.60;;;12.00;97.20;;;11.54;98.15;98277.09;5041655;28;20488;-79
2023/09/15 03:50:51;;;;;;;7.07;6.37;;;11.90;97.60;;;10.91;97.88;98175.84;5040148;28;20477;-78
2023/09/15 03:53:19;;;;;;;6.67;5.50;;;11.90;98.20;;;11.42;97.93;98276.09;5045495;28;20460;-80
2023/09/15 03:55:47;;;;;;;6.90;6.17;;;11.90;97.80;;;11.48;98.20;98280.66;5037161;28;20464;-79
2023/09/15 03:58:14;;;;;;;8.40;6.50;;;11.90;97.50;;;11.57;97.71;98278.56;5038999;28;20543;-79
2023/09/15 04:00:43;;;;;;;7.77;6.20;;;11.90;97.60;;;11.56;97.57;98282.31;5041884;28;20486;-79
2023/09/15 04:03:11;;;;;;;7.17;6.47;;;11.90;97.50;;;11.53;97.72;98275.44;5038909;28;20458;-80
2023/09/15 04:05:39;;;;;;;7.73;6.90;;;11.90;97.60;;;11.57;97.44;98282.06;5037531;28;20468;-78
2023/09/15 04:08:07;;;;;;;7.53;6.00;;;11.90;97.40;;;11.46;98.05;98271.94;5045201;28;20905;-79
2023/09/15 04:10:34;;;;;;;7.40;6.43;;;11.90;97.50;;;11.44;97.52;98276.72;5045358;28;20478;-80
2023/09/15 04:13:02;;;;;;;8.10;7.10;;;11.90;97.40;;;11.51;97.71;98288.34;5042007;28;20509;-78
2023/09/15 04:15:30;;;;;;;7.20;6.07;;;11.90;97.20;;;11.39;98.18;98274.69;5037223;28;20943;-77
2023/09/15 04:17:57;;;;;;;7.87;6.23;;;11.90;97.80;;;11.44;97.63;98282.13;5041621;28;20465;-77
2023/09/15 04:20:26;;;;;;;6.83;5.80;;;11.90;97.20;;;11.44;98.08;98292.94;5034722;28;20472;-80
2023/09/15 04:22:56;;;;;;;7.03;6.30;;;11.90;97.60;;;11.44;98.06;98282.13;5023346;28;20536;-79
2023/09/15 04:25:24;;;;;;;7.93;6.73;;;11.90;97.50;;;11.48;97.99;98284.19;5043470;28;20520;-79
2023/09/15 04:27:51;;;;;;;9.90;6.57;;;11.90;97.50;;;11.45;98.12;98287.34;5044925;28;20474;-78
2023/09/15 04:30:18;;;;;;;7.20;6.50;;;11.90;97.60;;;11.44;98.23;98287.53;5039733;28;20477;-80
2023/09/15 04:32:47;;;;;;;6.87;6.10;;;11.80;97.80;;;11.41;98.48;98279.84;5040405;28;20453;-78
2023/09/15 04:35:15;;;;;;;8.37;6.80;;;11.80;97.70;;;11.29;98.81;98275.09;5040024;28;20492;-78
2023/09/15 04:37:45;;;;;;;7.63;6.83;;;11.80;97.50;;;11.40;98.76;98283.59;5041976;28;20510;-78
2023/09/15 04:40:14;;;;;;;8.23;7.37;;;11.80;97.90;;;11.35;98.68;98286.94;5039820;28;20898;-79
2023/09/15 04:42:42;;;;;;;7.67;6.77;;;11.90;97.40;;;11.36;98.26;98290.50;5042080;28;20459;-78
2023/09/15 04:45:11;;;;;;;7.53;6.73;;;11.90;97.30;;;11.32;98.84;98290.94;5039209;28;20561;-78
2023/09/15 04:47:40;;;;;;;6.80;6.20;;;11.80;97.40;;;11.36;98.19;98285.91;5042365;28;20469;-77
2023/09/15 04:50:09;;;;;;;7.03;6.33;;;11.80;97.40;;;11.41;97.89;98287.97;5041492;28;21031;-77
2023/09/15 04:52:36;;;;;;;6.83;5.73;;;11.90;97.40;;;11.40;98.32;98302.53;5037260;28;20461;-78
2023/09/15 04:55:04;;;;;;;8.13;7.20;;;11.90;97.40;;;11.28;98.13;98281.56;5042380;28;20448;-77
2023/09/15 04:57:34;;;;;;;7.60;6.60;;;11.90;97.10;;;11.37;98.44;98297.56;5033474;28;20528;-79
2023/09/15 05:00:01;;;;;;;8.10;6.63;;;11.80;97.30;;;11.31;98.56;98297.38;5037693;28;20474;-77
2023/09/15 05:02:30;;;;;;;8.83;6.40;;;11.80;97.20;;;11.40;98.57;98291.72;5044187;28;20497;-79
2023/09/15 05:04:58;;;;;;;7.00;6.30;;;11.90;97.50;;;11.38;98.25;98296.53;5044234;28;20554;-78
2023/09/15 05:07:25;;;;;;;6.83;6.23;;;11.90;97.10;;;11.42;97.76;98289.63;5035483;28;20834;-76
2023/09/15 05:09:53;;;;;;;7.03;6.10;;;11.90;97.30;;;11.28;98.73;98265.34;5043319;28;20450;-79
2023/09/15 05:12:20;;;;;;;10.30;7.37;;;11.90;97.70;;;11.66;97.83;98284.53;5041350;28;20820;-77
2023/09/15 05:14:49;;;;;;;7.63;6.83;;;12.00;98.20;;;11.60;96.72;98292.50;5040282;28;20448;-79
2023/09/15 05:17:16;;;;;;;7.87;7.17;;;12.00;96.80;;;11.64;96.63;98287.44;5040205;28;20460;-77
2023/09/15 05:19:44;;;;;;;10.37;7.27;;;12.10;96.80;;;12.01;96.04;98284.13;5045749;28;20491;-88
2023/09/15 05:22:12;;;;;;;6.50;5.90;;;12.20;97.40;;;11.83;95.51;98291.09;5053288;28;20523;-79
2023/09/15 05:24:39;;;;;;;9.00;6.93;;;12.20;95.90;;;11.64;96.04;98286.63;5038253;28;20467;-81
2023/09/15 05:27:06;;;;;;;7.00;6.30;;;12.10;95.70;;;11.19;96.04;98194.44;5045131;28;20807;-74
2023/09/15 05:29:35;;;;;;;7.50;5.67;;;12.10;95.70;;;11.96;95.04;98287.47;5041646;28;20453;-80
2023/09/15 05:32:04;;;;;;;6.90;6.20;;;12.20;95.80;;;11.80;94.65;98271.75;5036245;28;20480;-79
2023/09/15 05:34:32;;;;;;;6.83;6.20;;;12.30;94.90;;;11.92;94.39;98288.97;5037229;28;20538;-82
2023/09/15 05:36:59;;;;;;;7.50;6.73;;;12.30;95.10;;;11.77;94.68;98297.41;5042656;28;20463;-79
2023/09/15 05:39:27;;;;;;;8.23;6.87;;;12.20;94.60;;;11.80;95.25;98291.53;5042971;28;20456;-82
2023/09/15 05:41:56;;;;;;;7.00;6.20;;;12.20;95.00;;;11.68;94.18;98239.13;5041529;28;20487;-79
2023/09/15 05:44:23;;;;;;;7.87;6.10;;;12.30;95.10;;;12.07;93.49;98286.00;5043237;28;20555;-78
2023/09/15 05:46:50;;;;;;;6.90;6.10;;;12.40;94.80;;;12.22;92.57;98290.28;5039495;28;20466;-79
2023/09/15 05:49:19;;;;;;;6.43;5.83;;;12.50;94.50;;;12.10;92.50;98282.84;5044215;28;20449;-79
2023/09/15 05:51:48;;;;;;;7.27;6.03;;;12.50;93.80;;;12.14;92.39;98281.34;5051897;28;20473;-78
2023/09/15 05:54:15;;;;;;;8.23;5.97;;;12.60;93.70;;;12.13;92.03;98273.44;5041211;28;20471;-80
2023/09/15 05:56:42;;;;;;;6.60;5.23;;;12.60;93.20;;;12.26;91.78;98281.47;5037829;28;20550;-79
2023/09/15 05:59:09;;;;;;;7.33;6.50;;;12.70;93.30;;;12.28;92.01;98281.28;5042210;28;20510;-78
2023/09/15 06:01:39;;;;;;;7.57;6.17;;;12.70;93.30;;;12.25;92.45;98279.00;5040436;28;20476;-78
2023/09/15 06:04:07;;;;;;;6.33;5.73;;;12.70;93.10;;;12.31;91.79;98283.53;5047179;28;20474;-77
2023/09/15 06:06:36;;;;;;;9.73;5.67;;;12.80;92.90;;;12.39;91.00;98277.84;5039039;28;20675;-77
2023/09/15 06:09:04;;;;;;;7.30;5.93;;;12.80;92.80;;;12.41;91.36;98275.75;5059004;28;20451;-81
2023/09/15 06:11:31;;;;;;;7.23;6.20;;;12.90;92.60;;;12.22;90.23;98212.53;5043090;28;20495;-78
2023/09/15 06:13:59;;;;;;;6.90;6.20;;;13.00;92.60;;;12.69;89.65;98279.03;5048635;28;20465;-80
2023/09/15 06:16:26;;;;;;;6.63;5.40;;;13.10;92.10;;;12.87;89.11;98287.19;5050532;28;20825;-77
2023/09/15 06:18:53;;;;;;;5.90;5.30;;;13.20;91.90;;;12.94;88.02;98283.63;5048967;28;20457;-75
2023/09/15 06:21:21;;;;;;;7.03;5.80;;;13.30;91.50;;;12.98;87.94;98284.81;5048115;28;20479;-77
2023/09/15 06:23:50;;;;;;;6.67;5.60;;;13.40;91.30;;;12.86;88.02;98257.63;5020119;28;20473;-78
2023/09/15 06:26:18;;;;;;;8.10;5.27;;;13.40;91.20;;;13.06;87.76;98275.56;5045422;28;20786;-79
2023/09/15 06:28:46;;;;;;;6.10;5.50;;;13.50;91.20;;;13.21;87.20;98269.78;5042887;28;20448;-74
2023/09/15 06:31:15;;;;;;;5.43;4.70;;;13.60;91.20;;;13.35;85.88;98273.13;5046593;28;20306;-76
2023/09/15 06:33:42;;;;;;;5.70;5.20;;;13.70;90.90;;;13.32;85.58;98274.41;5045483;28;20539;-78
2023/09/15 06:36:10;;;;;;;5.77;5.17;;;13.80;90.60;;;13.56;85.56;98280.81;5041398;28;20443;-75
2023/09/15 06:38:37;;;;;;;5.77;4.40;;;13.90;90.70;;;13.77;83.70;98277.84;5060111;28;20452;-78
2023/09/15 06:41:07;;;;;;;5.50;4.97;;;14.10;90.40;;;13.64;83.85;98268.81;5025132;28;20504;-77
2023/09/15 06:43:36;;;;;;;5.40;4.90;;;14.20;90.10;;;13.71;84.07;98275.00;5038492;28;20472;-76
2023/09/15 06:46:04;;;;;;;6.93;4.93;;;14.20;90.10;;;13.46;83.55;98208.09;5037657;28;20475;-79
2023/09/15 06:48:32;;;;;;;5.33;4.83;;;14.20;90.00;;;13.87;83.24;98264.56;5044352;28;20945;-77
2023/09/15 06:50:59;;;;;;;5.70;5.20;;;14.30;89.80;;;13.96;83.16;98270.50;5052804;28;20464;-79
2023/09/15 06:53:27;;;;;;;4.73;4.33;;;14.30;89.60;;;13.94;82.97;98264.47;5044219;28;20457;-72
2023/09/15 06:55:56;;;;;;;11.93;5.07;;;14.40;89.50;;;14.26;81.66;98270.47;5044394;28;20470;-74
2023/09/15 06:58:26;;;;;;;5.27;4.77;;;14.50;89.40;;;14.29;80.51;98261.84;5050297;28;20504;-75
2023/09/15 07:00:56;;;;;;;5.33;4.83;;;14.70;88.80;;;14.34;81.90;98269.28;5045306;28;20470;-72
2023/09/15 07:03:26;;;;;;;6.73;4.90;;;14.70;89.00;;;14.56;80.49;98277.72;5048701;28;20483;-74
2023/09/15 07:05:55;;;;;;;4.80;4.40;;;14.80;88.80;;;14.71;80.30;98269.09;5042086;28;20520;-74
2023/09/15 07:08:22;;;;;;;4.80;4.40;;;15.00;88.90;;;14.81;78.74;98262.25;5026685;28;20873;-73
2023/09/15 07:10:51;;;;;;;7.37;3.97;;;15.10;88.10;;;14.85;79.21;98268.88;5052795;28;20473;-73
2023/09/15 07:13:20;;;;;;;4.23;3.87;;;15.20;88.10;;;14.95;78.50;98269.13;5043779;28;20524;-73
2023/09/15 07:15:49;;;;;;;5.00;4.13;;;15.30;87.80;;;15.11;77.61;98277.63;5045465;28;20470;-74
2023/09/15 07:18:17;;;;;;;4.93;4.13;;;15.40;87.40;;;15.35;77.01;98272.09;5025162;28;20519;-74
2023/09/15 07:20:45;;;;;;;4.97;4.50;;;15.50;87.40;;;15.34;76.75;98274.03;5047621;28;20564;-73
2023/09/15 07:23:12;;;;;;;5.10;4.53;;;15.50;87.00;;;15.43;76.48;98269.84;5056922;28;20533;-74
2023/09/15 07:25:39;;;;;;;6.60;4.43;;;15.60;87.00;;;15.28;75.82;98234.13;5051803;28;20498;-73
2023/09/15 07:28:07;;;;;;;7.13;4.70;;;15.70;86.70;;;15.43;75.25;98272.56;5038746;28;20550;-72
2023/09/15 07:30:34;;;;;;;4.40;4.00;;;15.70;86.30;;;15.48;75.16;98260.13;5043829;28;20461;-73
2023/09/15 07:33:04;;;;;;;4.73;4.33;;;15.70;86.20;;;15.49;75.51;98267.25;5043880;28;20457;-74
2023/09/15 07:35:32;;;;;;;4.80;4.40;;;15.70;86.20;;;15.40;75.42;98270.31;5025176;28;20454;-72
2023/09/15 07:38:00;;;;;;;4.97;4.50;;;15.70;86.00;;;15.61;75.27;98272.63;5040551;28;20895;-72
2023/09/15 07:40:27;;;;;;;4.83;4.37;;;15.80;86.30;;;15.55;74.94;98250.75;5041226;28;20444;-72
2023/09/15 07:42:57;;;;;;;4.00;3.70;;;15.80;86.00;;;15.80;74.67;98263.19;5044518;28;20569;-73
2023/09/15 07:45:24;;;;;;;5.00;4.50;;;16.00;86.10;;;15.45;74.47;98201.53;5047093;28;20961;-73
2023/09/15 07:47:52;;;;;;;5.50;4.30;;;16.00;85.80;;;15.63;73.93;98202.41;5039325;28;20957;-73
2023/09/15 07:50:20;;;;;;;4.90;4.50;;;16.10;85.90;;;16.03;73.12;98234.22;5046390;28;20447;-73
2023/09/15 07:52:49;;;;;;;4.70;4.30;;;16.30;85.60;;;16.23;73.30;98244.66;5045070;28;20545;-72
2023/09/15 07:55:18;;;;;;;4.50;4.10;;;16.50;85.60;;;16.36;72.52;98257.13;5046833;28;20463;-73
2023/09/15 07:57:45;;;;;;;4.50;3.63;;;16.50;85.10;;;16.20;72.81;98256.03;5038545;28;20481;-72
2023/09/15 08:00:14;;;;;;;4.90;4.10;;;16.50;85.00;;;15.94;72.84;98181.19;5048130;28;20581;-73
2023/09/15 08:02:43;;;;;;;4.47;4.07;;;16.60;85.00;;;16.36;72.31;98227.13;5042858;28;20462;-74
2023/09/15 08:05:12;;;;;;;6.33;4.10;;;16.70;84.80;;;16.71;71.79;98253.28;5045002;28;20450;-73
2023/09/15 08:07:44;;;;;;;4.87;4.47;;;16.90;84.80;;;16.80;72.03;98261.06;5042944;28;20469;-74
2023/09/15 08:10:13;;;;;;;4.90;4.30;;;17.00;84.80;;;16.49;72.30;98241.50;5047382;28;21339;-73
2023/09/15 08:12:40;;;;;;;4.53;4.13;;;17.00;84.70;;;16.53;72.54;98248.13;5036993;28;20489;-72
2023/09/15 08:15:10;;;;;;;4.63;4.23;;;16.90;84.50;;;17.00;71.04;98241.47;5044053;28;20461;-71
2023/09/15 08:17:38;;;;;;;4.60;4.03;;;17.10;84.50;;;17.06;70.89;98256.81;5040417;28;21005;-72
2023/09/15 08:20:07;;;;;;;4.73;4.33;;;17.20;84.30;;;17.14;70.44;98247.38;5046493;28;20453;-73
2023/09/15 08:22:38;;;;;;;6.60;4.27;;;17.30;84.00;;;16.98;70.80;98228.03;5042662;28;20488;-72
2023/09/15 08:25:09;;;;;;;4.77;4.37;;;17.40;84.00;;;17.09;70.86;98247.31;5053333;28;20454;-72
2023/09/15 08:27:36;;;;;;;4.50;4.03;;;17.40;84.00;;;17.30;70.58;98244.84;5036999;28;21001;-73
2023/09/15 08:30:04;;;;;;;4.20;3.80;;;17.50;84.20;;;17.23;70.08;98206.81;5042043;28;20458;-72
2023/09/15 08:32:32;;;;;;;4.83;4.43;;;17.60;84.00;;;17.49;69.68;98253.53;5042240;28;20473;-72
2023/09/15 08:34:59;;;;;;;4.77;4.37;;;17.80;83.60;;;17.60;69.77;98241.66;5048726;28;20470;-73
2023/09/15 08:37:26;;;;;;;5.40;4.90;;;17.80;84.00;;;17.45;69.72;98231.38;5043379;28;20474;-72
2023/09/15 08:39:55;;;;;;;6.50;4.40;;;17.90;83.40;;;17.63;69.81;98238.41;5049186;28;20446;-73
2023/09/15 08:42:27;;;;;;;4.50;4.10;;;17.90;83.50;;;17.83;69.75;98236.97;5044892;28;20521;-74
2023/09/15 08:44:56;;;;;;;6.83;4.50;;;18.10;83.90;;;18.29;68.59;98238.50;5047795;28;20473;-72
2023/09/15 08:47:25;;;;;;;3.70;3.40;;;18.30;83.70;;;18.38;67.63;98229.56;5045338;28;20456;-72
2023/09/15 08:49:54;;;;;;;5.03;4.13;;;18.50;83.20;;;18.42;67.18;98235.34;5046100;28;20456;-74
2023/09/15 08:52:22;;;;;;;4.17;3.83;;;18.60;82.70;;;18.36;66.86;98179.78;5043944;28;20562;-73
2023/09/15 08:54:52;;;;;;;5.67;4.10;;;18.70;82.80;;;18.83;65.98;98232.06;5044941;28;20462;-73
2023/09/15 08:57:23;;;;;;;4.13;3.50;;;18.90;82.50;;;19.03;65.29;98236.84;5045323;28;20459;-72
2023/09/15 08:59:53;;;;;;;4.83;4.43;;;19.10;82.20;;;19.07;64.87;98237.97;5043732;28;20464;-72
2023/09/15 09:02:22;;;;;;;8.60;4.20;;;19.20;81.50;;;19.11;64.60;98236.38;5043986;28;20946;-72
2023/09/15 09:04:49;;;;;;;3.93;3.63;;;19.40;81.40;;;19.24;64.05;98240.53;5050303;28;20462;-72
2023/09/15 09:07:17;;;;;;;5.40;4.50;;;19.40;81.00;;;19.15;64.97;98239.38;5048762;28;20455;-72
2023/09/15 09:09:45;;;;;;;11.00;5.33;;;19.40;81.00;;;19.38;63.54;98240.03;5054701;28;20447;-72
2023/09/15 09:12:14;;;;;;;5.03;4.57;;;19.60;80.50;;;19.68;62.96;98231.06;5057131;28;20568;-72
2023/09/15 09:14:43;;;;;;;5.63;5.23;;;19.70;80.60;;;19.63;62.58;98233.81;5053393;28;20555;-72
2023/09/15 09:17:12;;;;;;;5.07;4.57;;;19.80;79.90;;;19.53;62.57;98236.50;5045804;28;20459;-72
2023/09/15 09:19:42;;;;;;;5.80;4.23;;;19.80;79.70;;;19.63;62.97;98242.03;5039125;28;21036;-73
2023/09/15 09:22:09;;;;;;;4.80;4.40;;;19.80;79.90;;;19.78;62.48;98243.97;5039336;28;20460;-73
2023/09/15 09:24:39;;;;;;;4.53;3.77;;;19.90;79.80;;;19.73;62.12;98232.22;5043910;28;20470;-74
2023/09/15 09:27:10;;;;;;;4.93;4.53;;;19.90;79.30;;;19.58;62.75;98238.44;5038200;28;20458;-74
2023/09/15 09:29:39;;;;;;;4.50;4.10;;;19.90;79.30;;;19.78;62.22;98233.00;5053301;28;20949;-74
2023/09/15 09:32:07;;;;;;;4.37;4.07;;;19.90;79.30;;;19.93;61.66;98214.97;5043032;28;20986;-74
2023/09/15 09:34:35;;;;;;;4.37;4.00;;;20.00;79.10;;;20.35;60.65;98216.66;5043435;28;20461;-73
2023/09/15 09:37:03;;;;;;;4.30;3.87;;;20.20;79.00;;;20.19;59.84;98206.78;5053761;28;20457;-72
2023/09/15 09:39:31;;;;;;;4.40;4.00;;;20.30;78.30;;;20.32;60.31;98217.22;5049570;28;20455;-75
2023/09/15 09:41:59;;;;;;;4.43;4.13;;;20.40;78.30;;;20.29;60.36;98211.44;5048466;28;20806;-74
2023/09/15 09:44:26;;;;;;;4.60;4.30;;;20.40;78.00;;;20.47;59.34;98205.41;5053145;28;20445;-74
2023/09/15 09:46:56;;;;;;;4.43;4.03;;;20.50;77.80;;;20.74;58.87;98214.44;5048810;28;20717;-73
2023/09/15 09:49:24;;;;;;;4.30;4.00;;;20.60;77.60;;;20.36;58.28;98152.44;5046285;28;20471;-73
2023/09/15 09:51:53;;;;;;;4.67;4.30;;;20.80;77.00;;;20.37;59.50;98195.25;5046127;28;20455;-73
2023/09/15 09:54:20;;;;;;;4.90;4.30;;;20.60;77.00;;;20.55;59.54;98197.72;5047482;28;20877;-72
2023/09/15 09:56:49;;;;;;;4.57;3.77;;;20.70;77.20;;;20.41;59.51;98202.94;5045258;28;20447;-73
2023/09/15 09:59:17;;;;;;;4.17;3.80;;;20.60;76.80;;;20.17;59.05;98156.88;5048627;28;20519;-72
2023/09/15 10:01:44;;;;;;;4.80;4.17;;;20.70;76.40;;;20.63;58.89;98195.22;5041093;28;20562;-73
2023/09/15 10:04:12;;;;;;;4.30;3.90;;;20.80;76.50;;;20.76;58.58;98191.06;5052418;28;20468;-73
2023/09/15 10:06:41;;;;;;;3.97;3.50;;;20.90;76.30;;;21.01;58.05;98192.13;5038487;28;20502;-72
2023/09/15 10:09:13;;;;;;;3.80;3.50;;;21.10;76.30;;;20.88;57.62;98196.31;5066513;28;20802;-72
2023/09/15 10:11:41;;;;;;;4.10;3.57;;;21.10;75.40;;;20.94;56.76;98183.38;5043374;28;20465;-73
2023/09/15 10:14:10;;;;;;;3.83;3.53;;;21.10;74.80;;;21.06;57.08;98185.81;5051523;28;20441;-75
2023/09/15 10:16:37;;;;;;;4.67;4.17;;;21.20;75.20;;;21.20;57.05;98186.84;5047336;28;20523;-72
2023/09/15 10:19:05;;;;;;;3.90;3.60;;;21.30;75.00;;;20.54;56.81;98120.03;5046103;28;20469;-73
2023/09/15 10:21:36;;;;;;;12.07;4.23;;;21.20;74.40;;;20.96;56.24;98186.66;5053715;28;20465;-74
2023/09/15 10:24:09;;;;;;;7.20;4.00;;;21.20;73.90;;;21.37;55.87;98180.97;5047336;28;20452;-73